Skip Navigation Links Skip Navigation Links

Current Weather

Santacruz Apt, Mumbai (Bombay), India

For information only: do not use for flight planning or navigation.
Latest weather
Observation time Thursday, December 14, 2017 7:00 AM IST
Local time Thursday, December 14, 2017 7:38 AM IST
Flight conditions Instrument Meteorological Conditions
Winds
Wind direction East-Northeast (60°)
Wind speed 3 mph
Visibility 1.9 mi.
Present weather haze
Sky condition
Ceiling unlimited
Temperature 70°F
Dewpoint 57°F
Altimeter 29.94 in.Hg
Derived measurements
Relative humidity 64%
Density altitude 943 ft.
Remarks
No significant changes expected in the next two hours.
METAR VABB 140130Z 06003KT 3000 HZ NSC 21/14 Q1014 NOSIG

Settings

Location code

InnerDrive.Weather 4.0.6144.1 Release CLR 4.0.30319.36366
Copyright ©2015 Inner Drive Technology. All rights reserved. Portions Copyright ©1986-2015 David Braverman.

Find weather

Site navigation


Skip Navigation Links

Place info

Page info

PayPal - The safer, easier way to pay online!

Return home.

Copyright ©2017 Inner Drive Technology. Purveyors of fine, hand-crafted computer software. Page printed 2017-12-14T02:08:02 UTC.